Time;durP1;ratioP1;P1;durP2;ratioP2;P2;SDS_P1;SDS_P2;PMS_P1;PMS_P2;Temp;Humidity;BMP_temperature;BMP_pressure;BME280_temperature;BME280_humidity;BME280_pressure;Samples;Min_cycle;Max_cycle;Signal;HPM_P1;HPM_P2
2022/10/29 00:00:22;;;;;;;0.10;0.10;;;;;;;13.22;100.00;102090.81;5018183;28;20111;-70
2022/10/29 00:02:47;;;;;;;0.10;0.10;;;;;;;13.20;100.00;102079.28;5015881;28;20047;-70
2022/10/29 00:05:12;;;;;;;0.00;0.00;;;;;;;13.28;100.00;102086.84;5019672;28;20035;-70
2022/10/29 00:07:38;;;;;;;0.10;0.10;;;;;;;13.31;100.00;102106.34;5036635;28;20349;-70
2022/10/29 00:10:03;;;;;;;0.10;0.10;;;;;;;13.29;100.00;102100.19;5035114;28;20035;-69
2022/10/29 00:12:29;;;;;;;0.10;0.10;;;;;;;13.17;100.00;102076.78;5039116;28;20036;-70
2022/10/29 00:14:54;;;;;;;0.10;0.10;;;;;;;13.01;100.00;102067.03;5020269;28;20515;-69
2022/10/29 00:17:19;;;;;;;0.10;0.10;;;;;;;13.07;100.00;102081.06;5018869;28;20037;-70
2022/10/29 00:19:45;;;;;;;0.10;0.10;;;;;;;13.07;100.00;102068.47;5016470;28;20060;-69
2022/10/29 00:22:10;;;;;;;0.00;0.00;;;;;;;13.01;100.00;102048.16;5036858;28;20020;-70
2022/10/29 00:24:35;;;;;;;0.10;0.10;;;;;;;13.02;100.00;102052.59;5035103;28;20028;-70
2022/10/29 00:27:00;;;;;;;0.10;0.10;;;;;;;13.07;100.00;102056.81;5017962;28;20029;-70
2022/10/29 00:29:26;;;;;;;0.00;0.00;;;;;;;13.11;100.00;102048.41;5004421;28;20784;-69
2022/10/29 00:31:51;;;;;;;0.10;0.10;;;;;;;13.14;100.00;102044.63;5001681;28;20071;-70
2022/10/29 00:34:16;;;;;;;0.10;0.10;;;;;;;13.26;100.00;102054.56;5013049;28;20029;-70
2022/10/29 00:36:42;;;;;;;0.10;0.10;;;;;;;13.23;100.00;102056.63;5017947;28;20056;-69
2022/10/29 00:39:12;;;;;;;0.00;0.00;;;;;;;13.11;100.00;102063.72;5018256;28;20036;-70
2022/10/29 00:41:37;;;;;;;0.10;0.10;;;;;;;12.90;100.00;102056.16;5014191;28;20028;-70
2022/10/29 00:44:19;;;;;;;0.10;0.10;;;;;;;12.52;100.00;102062.28;5018741;28;20365;-70
2022/10/29 00:46:47;;;;;;;1.05;1.05;;;;;;;12.21;100.00;102042.75;5033843;28;20036;-69
2022/10/29 00:49:13;;;;;;;0.50;0.50;;;;;;;12.21;100.00;102064.31;5015204;28;20525;-69
2022/10/29 00:51:38;;;;;;;0.10;0.10;;;;;;;11.89;100.00;102037.66;5018176;28;20659;-69
2022/10/29 00:54:06;;;;;;;0.00;0.00;;;;;;;12.06;100.00;102058.09;5015937;28;20715;-69
2022/10/29 00:56:35;;;;;;;0.10;0.10;;;;;;;12.08;100.00;102059.75;5015452;28;20029;-69
2022/10/29 00:59:00;;;;;;;0.10;0.10;;;;;;;12.26;100.00;102072.94;5018282;28;20128;-69
2022/10/29 01:01:26;;;;;;;0.40;0.40;;;;;;;12.05;100.00;102041.09;5016964;28;20037;-69
2022/10/29 01:03:51;;;;;;;0.10;0.10;;;;;;;12.26;100.00;102087.31;5017069;28;20714;-69
2022/10/29 01:06:17;;;;;;;0.10;0.10;;;;;;;12.30;100.00;102080.75;5034302;28;20025;-69
2022/10/29 01:08:42;;;;;;;0.00;0.00;;;;;;;12.35;100.00;102075.06;5019436;28;20039;-69
2022/10/29 01:11:20;;;;;;;0.00;0.00;;;;;;;12.36;100.00;102079.47;5023604;28;20158;-69
2022/10/29 01:13:51;;;;;;;0.10;0.10;;;;;;;12.17;100.00;102052.03;5017736;28;20148;-69
2022/10/29 01:16:28;;;;;;;0.10;0.10;;;;;;;12.34;100.00;102069.75;5036915;28;20025;-69
2022/10/29 01:19:11;;;;;;;0.10;0.10;;;;;;;12.59;100.00;102074.38;5039895;28;21188;-69
2022/10/29 01:21:48;;;;;;;0.15;0.15;;;;;;;12.69;100.00;102075.50;5037104;28;20087;-69
2022/10/29 01:24:42;;;;;;;0.10;0.10;;;;;;;12.75;100.00;102069.69;5031820;28;20542;-69
2022/10/29 01:27:26;;;;;;;0.10;0.10;;;;;;;12.79;100.00;102067.66;5016869;28;20029;-69
2022/10/29 01:30:06;;;;;;;0.10;0.10;;;;;;;12.59;100.00;102025.91;5013935;28;20102;-69
2022/10/29 01:33:09;;;;;;;0.10;0.10;;;;;;;12.78;100.00;102059.66;5031908;28;20372;-69
2022/10/29 01:35:49;;;;;;;0.10;0.10;;;;;;;12.76;100.00;102049.00;5036376;28;20078;-69
2022/10/29 01:38:23;;;;;;;0.10;0.10;;;;;;;12.77;100.00;102055.25;5015711;28;20047;-69
2022/10/29 01:41:03;;;;;;;0.10;0.10;;;;;;;12.74;100.00;102050.94;5018212;28;21541;-69
2022/10/29 01:43:35;;;;;;;0.10;0.10;;;;;;;12.92;100.00;102056.03;5034049;28;20033;-69
2022/10/29 01:46:11;;;;;;;0.10;0.10;;;;;;;12.86;100.00;102028.53;5016261;28;20032;-69
2022/10/29 01:48:42;;;;;;;0.10;0.10;;;;;;;13.05;100.00;102049.69;5031166;28;20021;-69
2022/10/29 01:51:12;;;;;;;0.10;0.10;;;;;;;12.94;100.00;102030.72;5018441;28;20039;-69
2022/10/29 01:53:38;;;;;;;0.10;0.10;;;;;;;12.84;100.00;102035.00;5013812;28;20443;-69
2022/10/29 01:56:03;;;;;;;0.75;0.75;;;;;;;12.64;100.00;102030.97;5033939;28;20025;-70
2022/10/29 01:58:29;;;;;;;0.10;0.10;;;;;;;12.41;100.00;101996.56;5005887;28;20033;-69
2022/10/29 02:01:15;;;;;;;0.10;0.10;;;;;;;12.36;100.00;101996.00;5033089;28;20029;-69
2022/10/29 02:04:01;;;;;;;0.40;0.40;;;;;;;12.44;100.00;102017.91;5016337;28;20029;-69
2022/10/29 02:06:35;;;;;;;1.05;1.05;;;;;;;12.37;100.00;102010.31;5035020;28;20033;-69
2022/10/29 02:09:40;;;;;;;0.10;0.10;;;;;;;12.30;100.00;102002.66;5037782;28;20021;-69
2022/10/29 02:12:11;;;;;;;;;;;;;;;12.26;100.00;101994.88;5012249;28;20175;-69
2022/10/29 02:14:37;;;;;;;0.10;0.10;;;;;;;12.30;100.00;101993.69;5034237;28;20455;-69
2022/10/29 02:17:03;;;;;;;0.10;0.10;;;;;;;12.33;100.00;101998.00;5032852;28;20117;-69
2022/10/29 02:19:31;;;;;;;0.10;0.10;;;;;;;12.37;100.00;101999.53;5018241;28;20060;-70
2022/10/29 02:21:56;;;;;;;0.10;0.10;;;;;;;12.40;100.00;101993.94;5017732;28;20036;-69
2022/10/29 02:24:23;;;;;;;0.10;0.10;;;;;;;12.42;100.00;102011.75;5019927;28;20037;-69
2022/10/29 02:26:48;;;;;;;0.10;0.10;;;;;;;12.40;100.00;101997.50;5032210;28;20047;-70
2022/10/29 02:29:14;;;;;;;0.10;0.10;;;;;;;12.39;100.00;101998.47;5021283;28;20464;-69
2022/10/29 02:31:39;;;;;;;0.10;0.10;;;;;;;12.38;100.00;102006.66;5035757;28;20476;-69
2022/10/29 02:34:04;;;;;;;0.10;0.10;;;;;;;12.35;100.00;101996.97;5032970;28;20124;-69
2022/10/29 02:36:30;;;;;;;0.10;0.10;;;;;;;12.34;100.00;101988.97;5033374;28;20029;-69
2022/10/29 02:38:55;;;;;;;0.10;0.10;;;;;;;12.27;100.00;101991.22;5036670;28;20039;-69
2022/10/29 02:41:20;;;;;;;0.20;0.20;;;;;;;12.29;100.00;101990.16;5015757;28;20029;-69
2022/10/29 02:43:45;;;;;;;0.20;0.20;;;;;;;12.47;100.00;101984.50;5034435;28;20179;-69
2022/10/29 02:46:12;;;;;;;2.05;1.95;;;;;;;12.44;100.00;101990.09;5034135;28;20457;-69
2022/10/29 02:48:37;;;;;;;1.50;1.40;;;;;;;12.41;100.00;101974.13;5033029;28;20518;-69
2022/10/29 02:51:02;;;;;;;0.20;0.20;;;;;;;12.27;100.00;101948.13;5034631;28;21646;-69
2022/10/29 02:53:28;;;;;;;0.00;0.00;;;;;;;12.41;100.00;101972.31;5032974;28;20118;-69
2022/10/29 02:55:53;;;;;;;0.10;0.10;;;;;;;12.47;100.00;101975.53;5033344;28;20033;-69
2022/10/29 02:58:18;;;;;;;0.10;0.10;;;;;;;12.48;100.00;101979.94;5033800;28;20113;-69
2022/10/29 03:00:44;;;;;;;0.10;0.10;;;;;;;12.47;100.00;101971.03;5013157;28;20037;-69
2022/10/29 03:03:09;;;;;;;0.00;0.00;;;;;;;12.46;100.00;101969.28;5031928;28;20637;-69
2022/10/29 03:05:36;;;;;;;0.20;0.20;;;;;;;12.40;100.00;101967.00;5018830;28;20042;-69
2022/10/29 03:08:01;;;;;;;0.80;0.80;;;;;;;12.28;100.00;101960.63;5037791;28;20028;-69
2022/10/29 03:10:27;;;;;;;1.40;1.30;;;;;;;11.99;100.00;101952.66;5036790;28;20488;-69
2022/10/29 03:12:52;;;;;;;1.23;1.13;;;;;;;11.88;100.00;101952.50;5038451;28;20439;-68
2022/10/29 03:15:17;;;;;;;1.30;1.20;;;;;;;11.87;100.00;101945.38;5036364;28;20037;-69
2022/10/29 03:17:42;;;;;;;1.23;1.13;;;;;;;11.86;100.00;101960.66;5036398;28;20056;-69
2022/10/29 03:20:08;;;;;;;1.83;1.73;;;;;;;11.80;100.00;101970.00;5037654;28;20032;-70
2022/10/29 03:22:35;;;;;;;1.17;1.17;;;;;;;11.72;100.00;101972.31;5019259;28;20032;-69
2022/10/29 03:25:00;;;;;;;0.30;0.30;;;;;;;11.83;100.00;101968.91;5033810;28;20028;-69
2022/10/29 03:27:26;;;;;;;0.73;0.73;;;;;;;11.83;100.00;101950.09;5034318;28;20032;-69
2022/10/29 03:29:51;;;;;;;0.10;0.10;;;;;;;12.00;100.00;101965.16;5035013;28;20408;-69
2022/10/29 03:32:16;;;;;;;0.10;0.10;;;;;;;12.07;100.00;101960.22;5034281;28;20086;-69
2022/10/29 03:34:41;;;;;;;0.10;0.10;;;;;;;12.12;100.00;101958.97;5034908;28;20098;-69
2022/10/29 03:37:07;;;;;;;0.10;0.10;;;;;;;12.18;100.00;101954.16;5038919;28;20033;-69
2022/10/29 03:39:32;;;;;;;0.10;0.10;;;;;;;12.03;100.00;101934.50;5033490;28;20063;-69
2022/10/29 03:41:57;;;;;;;0.00;0.00;;;;;;;12.20;100.00;101955.75;5039686;28;20440;-69
2022/10/29 03:44:23;;;;;;;0.03;0.03;;;;;;;12.19;100.00;101969.31;5037840;28;20055;-69
2022/10/29 03:46:48;;;;;;;0.50;0.50;;;;;;;12.07;100.00;101971.88;5041923;28;20402;-69
2022/10/29 03:49:13;;;;;;;0.30;0.30;;;;;;;11.98;100.00;101969.75;5036523;28;20056;-69
2022/10/29 03:51:39;;;;;;;0.20;0.20;;;;;;;11.90;100.00;101958.63;5036647;28;20025;-69
2022/10/29 03:54:04;;;;;;;0.20;0.20;;;;;;;11.81;100.00;101947.50;5038882;28;20055;-69
2022/10/29 03:56:29;;;;;;;0.10;0.10;;;;;;;11.91;100.00;101945.06;5037744;28;20138;-69
2022/10/29 03:58:54;;;;;;;0.10;0.10;;;;;;;12.02;100.00;101943.53;5037689;28;20639;-70
2022/10/29 04:01:20;;;;;;;0.00;0.00;;;;;;;12.06;100.00;101951.31;5034936;28;20407;-69
2022/10/29 04:03:45;;;;;;;0.10;0.10;;;;;;;12.08;100.00;101956.56;5032615;28;20141;-69
2022/10/29 04:06:12;;;;;;;0.00;0.00;;;;;;;12.15;100.00;101960.59;5037606;28;20434;-69
2022/10/29 04:08:38;;;;;;;0.10;0.10;;;;;;;12.19;100.00;101954.03;5037915;28;20033;-69
2022/10/29 04:11:03;;;;;;;0.00;0.00;;;;;;;12.24;100.00;101953.72;5036722;28;20037;-70
2022/10/29 04:13:29;;;;;;;0.00;0.00;;;;;;;12.25;100.00;101950.94;5017647;28;20753;-70
2022/10/29 04:15:54;;;;;;;0.10;0.10;;;;;;;12.36;100.00;101952.03;5035699;28;20033;-70
2022/10/29 04:18:20;;;;;;;0.10;0.10;;;;;;;12.29;100.00;101940.81;5035520;28;20216;-70
2022/10/29 04:20:45;;;;;;;0.10;0.10;;;;;;;12.36;100.00;101949.31;5033961;28;20069;-70
2022/10/29 04:23:11;;;;;;;0.10;0.10;;;;;;;12.36;100.00;101942.13;5019106;28;20112;-70
2022/10/29 04:25:36;;;;;;;0.10;0.10;;;;;;;12.11;100.00;101881.88;5038286;28;20543;-70
2022/10/29 04:28:02;;;;;;;0.10;0.10;;;;;;;12.37;100.00;101911.53;5035006;28;20021;-70
2022/10/29 04:30:27;;;;;;;0.00;0.00;;;;;;;12.41;100.00;101902.28;5038277;28;20036;-70
2022/10/29 04:32:57;;;;;;;0.13;0.13;;;;;;;12.43;100.00;101886.00;5019502;28;20052;-70
2022/10/29 04:35:22;;;;;;;0.10;0.10;;;;;;;12.55;100.00;101904.03;5033742;28;20035;-70
2022/10/29 04:37:47;;;;;;;0.10;0.10;;;;;;;12.44;100.00;101903.91;5037614;28;20033;-70
2022/10/29 04:40:13;;;;;;;0.10;0.10;;;;;;;12.33;100.00;101898.38;5039303;28;20371;-70
2022/10/29 04:42:39;;;;;;;1.63;1.52;;;;;;;12.42;100.00;101920.16;5035165;28;20106;-69
2022/10/29 04:45:06;;;;;;;0.50;0.50;;;;;;;12.30;100.00;101916.50;5032537;28;22827;-70
2022/10/29 04:47:31;;;;;;;0.10;0.10;;;;;;;12.10;100.00;101888.22;5020734;28;20461;-70
2022/10/29 04:49:56;;;;;;;0.10;0.10;;;;;;;12.26;100.00;101903.31;5035953;28;20113;-70
2022/10/29 04:52:22;;;;;;;0.10;0.10;;;;;;;12.32;100.00;101892.13;5034758;28;20029;-69
2022/10/29 04:54:47;;;;;;;0.10;0.10;;;;;;;12.33;100.00;101893.88;5035524;28;20060;-70
2022/10/29 04:57:12;;;;;;;0.10;0.10;;;;;;;12.30;100.00;101899.47;5033361;28;20020;-70
2022/10/29 04:59:37;;;;;;;0.10;0.10;;;;;;;12.22;100.00;101894.59;5033739;28;20067;-70
2022/10/29 05:02:03;;;;;;;0.10;0.10;;;;;;;12.13;100.00;101908.66;5033410;28;20120;-69
2022/10/29 05:04:28;;;;;;;0.13;0.13;;;;;;;12.03;100.00;101921.03;5034332;28;20036;-70
2022/10/29 05:06:54;;;;;;;0.70;0.70;;;;;;;11.94;100.00;101896.44;5035279;28;20029;-69
2022/10/29 05:09:19;;;;;;;1.10;1.10;;;;;;;11.91;100.00;101914.63;5037004;28;20136;-70
2022/10/29 05:11:44;;;;;;;0.38;0.38;;;;;;;11.90;100.00;101915.59;5033754;28;20021;-70
2022/10/29 05:14:09;;;;;;;0.10;0.10;;;;;;;11.91;100.00;101907.41;5034368;28;20446;-70
2022/10/29 05:16:35;;;;;;;0.50;0.50;;;;;;;11.94;100.00;101917.06;5035080;28;20028;-70
2022/10/29 05:19:00;;;;;;;0.00;0.00;;;;;;;11.98;100.00;101913.22;5032439;28;20033;-70
2022/10/29 05:21:25;;;;;;;0.10;0.10;;;;;;;12.00;100.00;101903.25;5018008;28;20119;-69
2022/10/29 05:23:51;;;;;;;0.10;0.10;;;;;;;12.10;100.00;101907.06;5032208;28;20025;-69
2022/10/29 05:26:16;;;;;;;0.05;0.05;;;;;;;12.17;100.00;101899.44;5015177;28;20114;-69
2022/10/29 05:28:41;;;;;;;0.10;0.10;;;;;;;12.20;100.00;101892.97;5034154;28;20465;-69
2022/10/29 05:31:06;;;;;;;0.10;0.10;;;;;;;12.19;100.00;101893.94;5043456;28;20129;-70
2022/10/29 05:33:32;;;;;;;0.10;0.10;;;;;;;11.93;100.00;101883.94;5032011;28;20028;-70
2022/10/29 05:35:59;;;;;;;0.40;0.40;;;;;;;11.88;100.00;101893.28;5034147;28;20745;-69
2022/10/29 05:38:25;;;;;;;0.20;0.20;;;;;;;11.71;100.00;101895.25;5034686;28;20083;-70
2022/10/29 05:40:50;;;;;;;0.90;0.90;;;;;;;11.43;100.00;101863.94;5017963;28;20139;-69
2022/10/29 05:43:17;;;;;;;0.30;0.30;;;;;;;11.41;100.00;101888.22;5036233;28;20029;-69
2022/10/29 05:45:43;;;;;;;0.32;0.32;;;;;;;11.28;100.00;101879.22;5019608;28;20048;-69
2022/10/29 05:48:09;;;;;;;0.20;0.20;;;;;;;11.32;100.00;101883.47;5033590;28;20035;-69
2022/10/29 05:50:35;;;;;;;0.00;0.00;;;;;;;11.40;100.00;101878.41;5018275;28;20035;-69
2022/10/29 05:53:02;;;;;;;0.50;0.50;;;;;;;11.50;100.00;101882.25;5040229;28;20021;-69
2022/10/29 05:55:29;;;;;;;0.10;0.10;;;;;;;11.56;100.00;101883.66;5017362;28;20025;-69
2022/10/29 05:57:58;;;;;;;0.10;0.10;;;;;;;11.63;100.00;101886.84;5017171;28;20024;-69
2022/10/29 06:00:24;;;;;;;0.10;0.10;;;;;;;11.68;100.00;101869.44;5020505;28;20033;-69
2022/10/29 06:02:49;;;;;;;0.10;0.10;;;;;;;11.70;100.00;101878.25;5017004;28;20060;-69
2022/10/29 06:05:14;;;;;;;0.17;0.17;;;;;;;11.66;100.00;101870.47;5035439;28;20113;-69
2022/10/29 06:07:40;;;;;;;0.75;0.75;;;;;;;11.65;100.00;101872.31;5017096;28;20029;-69
2022/10/29 06:10:06;;;;;;;0.10;0.10;;;;;;;11.75;100.00;101871.72;5037119;28;20055;-69
2022/10/29 06:12:31;;;;;;;0.20;0.20;;;;;;;11.67;100.00;101853.38;5001713;28;20496;-69
2022/10/29 06:14:57;;;;;;;0.03;0.03;;;;;;;11.69;100.00;101848.75;5004746;28;20025;-69
2022/10/29 06:17:22;;;;;;;0.10;0.10;;;;;;;11.70;100.00;101848.66;5022983;28;20033;-69
2022/10/29 06:19:48;;;;;;;0.10;0.10;;;;;;;11.70;100.00;101842.41;5039996;28;20063;-69
2022/10/29 06:22:13;;;;;;;0.00;0.00;;;;;;;11.74;100.00;101838.56;5037326;28;20025;-69
2022/10/29 06:24:38;;;;;;;0.10;0.10;;;;;;;11.87;100.00;101854.75;5037166;28;20167;-69
2022/10/29 06:27:03;;;;;;;0.10;0.10;;;;;;;11.95;100.00;101832.69;5034996;28;20099;-69
2022/10/29 06:29:29;;;;;;;0.10;0.10;;;;;;;12.06;100.00;101850.81;5044104;28;20401;-70
2022/10/29 06:31:54;;;;;;;0.10;0.10;;;;;;;12.16;100.00;101854.63;5041038;28;20459;-69
2022/10/29 06:34:19;;;;;;;0.10;0.10;;;;;;;12.13;100.00;101855.72;5037009;28;20038;-68
2022/10/29 06:36:45;;;;;;;0.10;0.10;;;;;;;12.23;100.00;101868.53;5040880;28;20036;-70
2022/10/29 06:39:10;;;;;;;0.10;0.10;;;;;;;12.28;100.00;101874.47;5043768;28;20036;-69
2022/10/29 06:41:35;;;;;;;0.10;0.10;;;;;;;12.32;100.00;101870.59;5042598;28;20071;-69
2022/10/29 06:44:01;;;;;;;0.10;0.10;;;;;;;12.28;100.00;101856.50;5039191;28;20066;-70
2022/10/29 06:46:26;;;;;;;0.10;0.10;;;;;;;12.32;100.00;101853.56;5024544;28;20045;-69
2022/10/29 06:48:51;;;;;;;0.10;0.10;;;;;;;12.48;100.00;101882.97;5006351;28;20116;-70
2022/10/29 06:51:17;;;;;;;0.15;0.15;;;;;;;12.49;100.00;101874.81;5034804;28;20033;-70
2022/10/29 06:53:42;;;;;;;0.10;0.10;;;;;;;12.52;100.00;101871.91;5041610;28;20025;-70
2022/10/29 06:56:07;;;;;;;0.10;0.10;;;;;;;12.59;100.00;101877.72;5039589;28;20120;-70
2022/10/29 06:58:33;;;;;;;0.10;0.10;;;;;;;12.66;100.00;101884.41;5038921;28;20033;-69
2022/10/29 07:01:01;;;;;;;0.10;0.10;;;;;;;12.54;100.00;101845.72;5022010;28;20028;-70
2022/10/29 07:03:26;;;;;;;0.10;0.10;;;;;;;12.77;100.00;101864.78;5020182;28;20044;-70
2022/10/29 07:05:56;;;;;;;0.10;0.10;;;;;;;12.86;100.00;101876.75;5041719;28;20052;-70
2022/10/29 07:08:21;;;;;;;0.10;0.10;;;;;;;12.86;100.00;101874.06;5038130;28;20484;-69
2022/10/29 07:10:50;;;;;;;0.10;0.10;;;;;;;12.93;100.00;101893.34;5023418;28;20345;-69
2022/10/29 07:13:15;;;;;;;0.10;0.10;;;;;;;12.89;100.00;101890.00;5005217;28;20411;-70
2022/10/29 07:15:41;;;;;;;0.10;0.10;;;;;;;12.68;100.00;101841.19;5039644;28;20033;-70
2022/10/29 07:18:07;;;;;;;0.10;0.10;;;;;;;12.93;100.00;101866.38;5039640;28;20037;-70
2022/10/29 07:20:34;;;;;;;0.10;0.10;;;;;;;12.85;100.00;101843.53;5017804;28;20492;-69
2022/10/29 07:23:00;;;;;;;0.20;0.20;;;;;;;12.93;100.00;101842.13;5020446;28;20032;-70
2022/10/29 07:25:26;;;;;;;0.10;0.10;;;;;;;13.11;100.00;101856.97;5019864;28;20016;-71
2022/10/29 07:27:51;;;;;;;0.10;0.10;;;;;;;13.15;100.00;101849.53;5036680;28;20380;-71
2022/10/29 07:30:17;;;;;;;0.13;0.13;;;;;;;13.31;100.00;101866.31;5033472;28;20060;-71
2022/10/29 07:32:42;;;;;;;0.10;0.10;;;;;;;13.35;100.00;101869.66;5007517;28;20116;-71
2022/10/29 07:35:08;;;;;;;0.10;0.10;;;;;;;13.27;100.00;101845.06;5038633;28;20039;-71
2022/10/29 07:37:33;;;;;;;0.20;0.20;;;;;;;13.49;100.00;101871.38;5009873;28;20036;-70
2022/10/29 07:39:58;;;;;;;0.10;0.10;;;;;;;13.50;100.00;101863.16;5046914;28;20029;-70
2022/10/29 07:42:24;;;;;;;0.10;0.10;;;;;;;13.50;100.00;101841.56;5028440;28;20033;-71
2022/10/29 07:44:49;;;;;;;0.10;0.10;;;;;;;13.77;100.00;101863.91;5043796;28;20052;-72
2022/10/29 07:47:14;;;;;;;0.10;0.10;;;;;;;13.88;100.00;101857.72;5044871;28;20036;-70
2022/10/29 07:49:40;;;;;;;0.10;0.10;;;;;;;13.91;100.00;101846.66;5022622;28;20120;-71
2022/10/29 07:52:05;;;;;;;0.17;0.17;;;;;;;14.03;100.00;101843.03;5022910;28;20029;-70
2022/10/29 07:54:30;;;;;;;0.13;0.13;;;;;;;14.14;100.00;101852.16;5041262;28;20029;-71
2022/10/29 07:56:55;;;;;;;0.10;0.10;;;;;;;14.20;100.00;101857.94;5013258;28;20025;-70
2022/10/29 07:59:21;;;;;;;0.20;0.20;;;;;;;14.22;100.00;101855.09;5043050;28;20029;-70
2022/10/29 08:01:46;;;;;;;0.10;0.10;;;;;;;14.28;100.00;101861.88;5024519;28;20132;-70
2022/10/29 08:04:12;;;;;;;0.10;0.10;;;;;;;14.25;100.00;101861.16;5043179;28;20071;-71
2022/10/29 08:06:38;;;;;;;0.20;0.20;;;;;;;14.20;100.00;101846.25;5041221;28;20044;-70
2022/10/29 08:09:03;;;;;;;0.10;0.10;;;;;;;14.30;100.00;101849.13;5042354;28;20320;-71
2022/10/29 08:11:30;;;;;;;0.10;0.10;;;;;;;14.45;100.00;101853.31;5043062;28;20052;-71
2022/10/29 08:13:55;;;;;;;0.10;0.10;;;;;;;14.45;100.00;101842.50;5024229;28;20025;-70
2022/10/29 08:16:21;;;;;;;0.10;0.10;;;;;;;14.66;100.00;101849.91;5041440;28;20036;-72
2022/10/29 08:18:46;;;;;;;0.10;0.10;;;;;;;14.74;100.00;101850.19;5027920;28;20069;-71
2022/10/29 08:21:11;;;;;;;0.10;0.10;;;;;;;14.78;100.00;101827.34;5046182;28;20055;-71
2022/10/29 08:23:36;;;;;;;0.10;0.10;;;;;;;14.98;100.00;101839.22;5027461;28;20029;-68
2022/10/29 08:26:02;;;;;;;0.10;0.10;;;;;;;15.05;100.00;101841.44;5041354;28;20016;-69
2022/10/29 08:28:27;;;;;;;0.10;0.10;;;;;;;14.97;100.00;101842.91;5045164;28;20067;-68
2022/10/29 08:30:53;;;;;;;0.10;0.10;;;;;;;14.99;100.00;101846.34;5008418;28;20036;-69
2022/10/29 08:33:19;;;;;;;0.13;0.13;;;;;;;14.96;100.00;101848.47;5038621;28;20047;-69
2022/10/29 08:35:44;;;;;;;0.20;0.20;;;;;;;15.00;100.00;101839.13;5045598;28;20090;-69
2022/10/29 08:38:10;;;;;;;0.10;0.10;;;;;;;14.95;100.00;101822.41;5042088;28;20032;-69
2022/10/29 08:40:54;;;;;;;0.10;0.10;;;;;;;15.13;100.00;101829.00;5023610;28;20049;-70
2022/10/29 08:43:31;;;;;;;;;;;;;;;15.20;100.00;101825.81;5044824;28;20025;-70
2022/10/29 08:45:57;;;;;;;0.10;0.10;;;;;;;15.32;100.00;101830.22;5037988;28;19924;-69
2022/10/29 08:48:45;;;;;;;0.10;0.10;;;;;;;15.26;100.00;101826.16;5024401;28;20033;-68
2022/10/29 08:51:21;;;;;;;0.10;0.10;;;;;;;15.46;100.00;101834.50;5025608;28;20811;-69
2022/10/29 08:53:49;;;;;;;0.10;0.10;;;;;;;15.41;100.00;101834.00;5039765;28;20036;-69
2022/10/29 08:56:18;;;;;;;0.10;0.10;;;;;;;15.45;100.00;101827.38;5030989;28;20362;-69
2022/10/29 08:58:52;;;;;;;0.10;0.10;;;;;;;15.55;100.00;101843.69;5025356;28;20411;-68
2022/10/29 09:01:20;;;;;;;0.10;0.10;;;;;;;15.67;100.00;101829.13;5025364;28;20142;-68
2022/10/29 09:03:45;;;;;;;0.10;0.10;;;;;;;16.00;100.00;101839.97;5021388;28;20065;-68
2022/10/29 09:06:21;;;;;;;0.10;0.10;;;;;;;16.11;100.00;101842.63;5020905;28;20475;-69
2022/10/29 09:09:12;;;;;;;0.10;0.10;;;;;;;16.10;100.00;101827.34;5020547;28;20024;-69
2022/10/29 09:11:43;;;;;;;0.00;0.00;;;;;;;16.22;100.00;101846.25;5040453;28;20506;-69
2022/10/29 09:14:36;;;;;;;0.10;0.10;;;;;;;16.26;100.00;101843.16;5037714;28;20033;-71
2022/10/29 09:17:25;;;;;;;0.10;0.10;;;;;;;16.27;100.00;101828.59;5040335;28;20536;-69
2022/10/29 09:20:17;;;;;;;0.00;0.00;;;;;;;16.34;100.00;101832.50;5024208;28;20541;-69
2022/10/29 09:22:51;;;;;;;0.10;0.10;;;;;;;16.45;100.00;101831.56;5035740;28;20020;-69
2022/10/29 09:25:16;;;;;;;;;;;;;;;16.50;100.00;101828.44;5037975;28;20067;-70
2022/10/29 09:28:07;;;;;;;0.10;0.10;;;;;;;16.59;100.00;101797.84;5043531;28;20039;-70
2022/10/29 09:30:48;;;;;;;0.00;0.00;;;;;;;16.76;100.00;101809.91;5038432;28;20440;-69
2022/10/29 09:33:16;;;;;;;0.10;0.10;;;;;;;16.85;100.00;101807.34;5022544;28;20487;-69
2022/10/29 09:35:56;;;;;;;0.10;0.10;;;;;;;16.84;100.00;101797.47;5017656;28;20033;-68
2022/10/29 09:38:31;;;;;;;0.10;0.10;;;;;;;16.96;100.00;101807.28;5023106;28;20029;-68
2022/10/29 09:40:58;;;;;;;0.10;0.10;;;;;;;17.01;100.00;101820.41;5006756;28;20063;-69
2022/10/29 09:43:47;;;;;;;0.10;0.10;;;;;;;17.12;100.00;101812.19;5020947;28;20123;-68
2022/10/29 09:46:30;;;;;;;0.00;0.00;;;;;;;17.06;100.00;101807.31;5040089;28;20029;-68
2022/10/29 09:49:10;;;;;;;0.03;0.03;;;;;;;17.07;100.00;101822.59;5039176;28;20108;-69
2022/10/29 09:51:35;;;;;;;0.10;0.10;;;;;;;17.07;100.00;101807.19;5037891;28;20687;-69
2022/10/29 09:54:01;;;;;;;0.10;0.10;;;;;;;17.09;100.00;101807.03;5041368;28;20028;-68
2022/10/29 09:56:26;;;;;;;0.10;0.10;;;;;;;17.12;100.00;101798.63;5042905;28;20807;-69
2022/10/29 09:58:55;;;;;;;0.05;0.05;;;;;;;17.17;100.00;101793.63;5042550;28;20968;-68
2022/10/29 10:01:21;;;;;;;0.10;0.10;;;;;;;17.02;100.00;101786.88;5042608;28;20044;-69
2022/10/29 10:03:47;;;;;;;0.10;0.10;;;;;;;17.20;100.00;101803.34;5024444;28;20021;-69
2022/10/29 10:06:15;;;;;;;0.10;0.10;;;;;;;17.12;100.00;101798.63;5026937;28;20032;-69
2022/10/29 10:08:55;;;;;;;0.10;0.10;;;;;;;17.29;100.00;101794.38;5032887;28;20063;-69
2022/10/29 10:11:22;;;;;;;0.10;0.10;;;;;;;17.23;100.00;101771.34;5045449;28;20040;-69
2022/10/29 10:13:54;;;;;;;0.10;0.10;;;;;;;17.43;100.00;101779.53;5016415;28;20037;-69
2022/10/29 10:16:27;;;;;;;0.10;0.10;;;;;;;17.66;100.00;101781.94;5022053;28;20036;-71
2022/10/29 10:18:53;;;;;;;0.10;0.10;;;;;;;17.76;100.00;101771.09;5025600;28;20029;-68
2022/10/29 10:21:29;;;;;;;0.10;0.10;;;;;;;18.00;100.00;101786.97;5039325;28;20041;-68
2022/10/29 10:23:56;;;;;;;0.10;0.10;;;;;;;18.08;100.00;101784.34;5003078;28;20129;-69
2022/10/29 10:26:42;;;;;;;0.17;0.17;;;;;;;18.34;100.00;101782.88;5020077;28;20040;-68
2022/10/29 10:29:22;;;;;;;0.10;0.10;;;;;;;18.70;100.00;101783.88;5020895;28;20307;-69
2022/10/29 10:31:56;;;;;;;0.00;0.00;;;;;;;19.05;100.00;101788.75;5037973;28;20040;-69
2022/10/29 10:34:35;;;;;;;0.10;0.10;;;;;;;19.41;100.00;101767.00;5048806;28;20480;-69
2022/10/29 10:37:10;;;;;;;0.05;0.05;;;;;;;19.85;100.00;101790.72;5030782;28;20756;-69
2022/10/29 10:39:37;;;;;;;0.10;0.10;;;;;;;20.10;100.00;101782.75;5021614;28;20564;-69
2022/10/29 10:42:06;;;;;;;0.08;0.08;;;;;;;20.16;100.00;101773.94;5005418;28;20033;-69
2022/10/29 10:44:31;;;;;;;0.10;0.10;;;;;;;20.79;99.00;101772.75;5025521;28;20033;-70
2022/10/29 10:47:03;;;;;;;0.10;0.10;;;;;;;21.11;96.68;101773.03;5038825;28;20036;-69
2022/10/29 10:49:31;;;;;;;0.00;0.00;;;;;;;21.47;96.57;101766.41;5024325;28;20065;-68
2022/10/29 10:51:58;;;;;;;0.10;0.10;;;;;;;21.98;92.27;101769.88;5040110;28;20323;-71
2022/10/29 10:54:40;;;;;;;0.10;0.10;;;;;;;22.33;86.13;101769.66;5044296;28;20104;-68
2022/10/29 10:57:08;;;;;;;0.10;0.10;;;;;;;21.88;85.54;101764.56;5024979;28;20028;-68
2022/10/29 10:59:42;;;;;;;0.10;0.10;;;;;;;22.05;91.75;101767.31;5040954;28;20084;-68
2022/10/29 11:02:44;;;;;;;0.00;0.00;;;;;;;22.47;86.21;101760.72;5039155;28;20029;-67
2022/10/29 11:05:16;;;;;;;0.10;0.10;;;;;;;23.00;84.57;101759.31;5033701;28;20028;-69
2022/10/29 11:07:45;;;;;;;0.10;0.10;;;;;;;23.36;78.67;101754.16;5018804;28;20036;-69
2022/10/29 11:10:11;;;;;;;0.10;0.10;;;;;;;23.42;76.06;101751.72;5034027;28;20460;-68
2022/10/29 11:12:47;;;;;;;0.10;0.10;;;;;;;23.52;78.45;101749.56;5023877;28;20444;-68
2022/10/29 11:15:29;;;;;;;0.00;0.00;;;;;;;23.89;76.34;101747.00;5040096;28;20119;-68
2022/10/29 11:17:59;;;;;;;0.00;0.00;;;;;;;24.49;74.20;101733.34;5036560;28;20060;-69
2022/10/29 11:20:34;;;;;;;0.08;0.08;;;;;;;24.95;71.65;101741.34;5039377;28;20483;-69
2022/10/29 11:23:26;;;;;;;0.08;0.08;;;;;;;25.11;69.84;101753.16;5019956;28;20025;-70
2022/10/29 11:26:18;;;;;;;0.10;0.10;;;;;;;25.19;68.81;101749.44;5043196;28;20459;-70